sensor_id;sensor_type;location;lat;lon;timestamp;pressure;altitude;pressure_sealevel;temperature;humidity
44148;BME280;29810;55.848;37.368;2022-12-29T00:01:37;98808.22;;;-0.28;94.52
44148;BME280;29810;55.848;37.368;2022-12-29T00:04:39;98812.50;;;-0.28;94.47
44148;BME280;29810;55.848;37.368;2022-12-29T00:07:40;98799.69;;;-0.35;93.61
44148;BME280;29810;55.848;37.368;2022-12-29T00:10:42;98815.06;;;-0.25;93.98
44148;BME280;29810;55.848;37.368;2022-12-29T00:13:47;98816.78;;;-0.35;92.11
44148;BME280;29810;55.848;37.368;2022-12-29T00:17:08;98819.34;;;-0.35;91.72
44148;BME280;29810;55.848;37.368;2022-12-29T00:20:09;98826.16;;;-0.42;90.65
44148;BME280;29810;55.848;37.368;2022-12-29T00:23:30;98822.72;;;-0.64;90.30
44148;BME280;29810;55.848;37.368;2022-12-29T00:30:23;98828.69;;;-0.54;90.53
44148;BME280;29810;55.848;37.368;2022-12-29T00:33:43;98825.25;;;-0.72;89.87
44148;BME280;29810;55.848;37.368;2022-12-29T00:37:04;98830.34;;;-0.76;89.02
44148;BME280;29810;55.848;37.368;2022-12-29T00:40:06;98804.66;;;-1.09;88.26
44148;BME280;29810;55.848;37.368;2022-12-29T00:43:27;98826.03;;;-0.97;89.36
44148;BME280;29810;55.848;37.368;2022-12-29T00:46:47;98829.44;;;-0.95;90.47
44148;BME280;29810;55.848;37.368;2022-12-29T00:49:49;98838.00;;;-0.84;90.83
44148;BME280;29810;55.848;37.368;2022-12-29T00:52:51;98832.00;;;-0.89;90.28
44148;BME280;29810;55.848;37.368;2022-12-29T00:55:53;98833.69;;;-0.97;90.21
44148;BME280;29810;55.848;37.368;2022-12-29T00:58:54;98847.41;;;-0.86;90.70
44148;BME280;29810;55.848;37.368;2022-12-29T01:01:56;98839.72;;;-0.83;91.74
44148;BME280;29810;55.848;37.368;2022-12-29T01:04:58;98840.59;;;-0.79;91.28
44148;BME280;29810;55.848;37.368;2022-12-29T01:07:59;98838.88;;;-0.77;91.29
44148;BME280;29810;55.848;37.368;2022-12-29T01:11:09;98838.88;;;-0.84;90.01
44148;BME280;29810;55.848;37.368;2022-12-29T01:14:12;98847.44;;;-0.75;90.07
44148;BME280;29810;55.848;37.368;2022-12-29T01:17:13;98850.75;;;-1.04;87.09
44148;BME280;29810;55.848;37.368;2022-12-29T01:20:15;98844.78;;;-1.02;89.59
44148;BME280;29810;55.848;37.368;2022-12-29T01:23:17;98857.59;;;-0.94;91.12
44148;BME280;29810;55.848;37.368;2022-12-29T01:26:20;98861.00;;;-0.98;89.23
44148;BME280;29810;55.848;37.368;2022-12-29T01:29:21;98863.53;;;-1.06;89.17
44148;BME280;29810;55.848;37.368;2022-12-29T01:32:23;98863.50;;;-1.10;89.82
44148;BME280;29810;55.848;37.368;2022-12-29T01:35:25;98864.34;;;-1.11;90.47
44148;BME280;29810;55.848;37.368;2022-12-29T01:38:26;98860.94;;;-1.10;90.48
44148;BME280;29810;55.848;37.368;2022-12-29T01:41:28;98871.22;;;-1.06;90.47
44148;BME280;29810;55.848;37.368;2022-12-29T01:44:53;98866.13;;;-0.98;90.71
44148;BME280;29810;55.848;37.368;2022-12-29T01:47:56;98861.88;;;-0.85;89.27
44148;BME280;29810;55.848;37.368;2022-12-29T01:50:58;98864.41;;;-0.94;91.49
44148;BME280;29810;55.848;37.368;2022-12-29T01:54:02;98854.09;;;-1.11;89.79
44148;BME280;29810;55.848;37.368;2022-12-29T01:57:09;98860.94;;;-1.12;90.81
44148;BME280;29810;55.848;37.368;2022-12-29T02:00:13;98859.25;;;-1.07;90.60
44148;BME280;29810;55.848;37.368;2022-12-29T02:03:17;98856.66;;;-1.16;88.62
44148;BME280;29810;55.848;37.368;2022-12-29T02:06:28;98865.97;;;-1.24;88.99
44148;BME280;29810;55.848;37.368;2022-12-29T02:09:31;98870.22;;;-1.33;88.30
44148;BME280;29810;55.848;37.368;2022-12-29T02:12:33;98861.59;;;-1.47;88.07
44148;BME280;29810;55.848;37.368;2022-12-29T02:15:56;98874.31;;;-1.58;89.17
44148;BME280;29810;55.848;37.368;2022-12-29T02:32:52;98890.56;;;-1.48;90.55
44148;BME280;29810;55.848;37.368;2022-12-29T02:36:07;98904.94;;;-1.67;88.74
44148;BME280;29810;55.848;37.368;2022-12-29T02:46:43;98898.72;;;-1.98;89.95
44148;BME280;29810;55.848;37.368;2022-12-29T02:53:04;98907.22;;;-2.01;89.93
44148;BME280;29810;55.848;37.368;2022-12-29T02:56:09;98905.50;;;-2.02;90.00
44148;BME280;29810;55.848;37.368;2022-12-29T02:59:12;98898.69;;;-2.02;90.97
44148;BME280;29810;55.848;37.368;2022-12-29T03:05:57;98901.97;;;-2.18;88.71
44148;BME280;29810;55.848;37.368;2022-12-29T03:12:50;98900.31;;;-2.10;89.96
44148;BME280;29810;55.848;37.368;2022-12-29T03:19:36;98901.31;;;-1.94;89.46
44148;BME280;29810;55.848;37.368;2022-12-29T03:22:44;98901.97;;;-2.15;88.93
44148;BME280;29810;55.848;37.368;2022-12-29T03:25:56;98914.00;;;-2.08;89.66
44148;BME280;29810;55.848;37.368;2022-12-29T03:29:00;98908.84;;;-2.09;88.14
44148;BME280;29810;55.848;37.368;2022-12-29T03:32:04;98913.94;;;-2.12;88.56
44148;BME280;29810;55.848;37.368;2022-12-29T03:35:08;98915.75;;;-2.01;89.82
44148;BME280;29810;55.848;37.368;2022-12-29T03:38:25;98928.53;;;-1.99;89.70
44148;BME280;29810;55.848;37.368;2022-12-29T03:41:31;98917.31;;;-2.15;86.92
44148;BME280;29810;55.848;37.368;2022-12-29T03:44:39;98918.03;;;-2.30;88.21
44148;BME280;29810;55.848;37.368;2022-12-29T03:47:42;98934.34;;;-2.14;89.20
44148;BME280;29810;55.848;37.368;2022-12-29T03:50:44;98924.22;;;-2.08;89.48
44148;BME280;29810;55.848;37.368;2022-12-29T03:57:57;98945.62;;;-1.93;88.76
44148;BME280;29810;55.848;37.368;2022-12-29T04:01:05;98943.06;;;-1.93;88.97
44148;BME280;29810;55.848;37.368;2022-12-29T04:04:08;98950.91;;;-1.73;89.53
44148;BME280;29810;55.848;37.368;2022-12-29T04:07:11;98946.69;;;-1.71;88.89
44148;BME280;29810;55.848;37.368;2022-12-29T04:10:14;98958.53;;;-1.78;87.48
44148;BME280;29810;55.848;37.368;2022-12-29T04:13:16;98954.13;;;-1.96;87.62
44148;BME280;29810;55.848;37.368;2022-12-29T04:16:18;98949.81;;;-2.00;88.04
44148;BME280;29810;55.848;37.368;2022-12-29T04:19:19;98952.31;;;-2.05;88.00
44148;BME280;29810;55.848;37.368;2022-12-29T04:22:21;98948.19;;;-1.93;88.86
44148;BME280;29810;55.848;37.368;2022-12-29T04:25:24;98948.28;;;-1.79;88.67
44148;BME280;29810;55.848;37.368;2022-12-29T04:28:26;98949.94;;;-1.83;87.40
44148;BME280;29810;55.848;37.368;2022-12-29T04:31:28;98949.94;;;-1.86;87.72
44148;BME280;29810;55.848;37.368;2022-12-29T04:34:30;98942.22;;;-1.92;87.38
44148;BME280;29810;55.848;37.368;2022-12-29T04:37:31;98941.22;;;-2.08;86.95
44148;BME280;29810;55.848;37.368;2022-12-29T04:40:33;98932.31;;;-2.46;87.45
44148;BME280;29810;55.848;37.368;2022-12-29T04:43:35;98946.50;;;-2.71;88.42
44148;BME280;29810;55.848;37.368;2022-12-29T04:46:40;98944.56;;;-2.88;89.26
44148;BME280;29810;55.848;37.368;2022-12-29T04:49:42;98955.59;;;-2.92;90.24
44148;BME280;29810;55.848;37.368;2022-12-29T04:52:44;98964.87;;;-2.97;90.51
44148;BME280;29810;55.848;37.368;2022-12-29T04:55:51;98958.78;;;-3.07;90.20
44148;BME280;29810;55.848;37.368;2022-12-29T04:59:13;98960.31;;;-3.18;91.10
44148;BME280;29810;55.848;37.368;2022-12-29T05:02:16;98964.50;;;-3.23;91.30
44148;BME280;29810;55.848;37.368;2022-12-29T05:05:19;98964.22;;;-3.42;91.60
44148;BME280;29810;55.848;37.368;2022-12-29T05:08:24;98968.38;;;-3.50;92.10
44148;BME280;29810;55.848;37.368;2022-12-29T05:11:31;98975.13;;;-3.52;92.45
44148;BME280;29810;55.848;37.368;2022-12-29T05:14:33;98947.59;;;-3.75;92.68
44148;BME280;29810;55.848;37.368;2022-12-29T05:17:36;98977.34;;;-3.72;92.73
44148;BME280;29810;55.848;37.368;2022-12-29T05:21:29;98987.59;;;-3.69;93.59
44148;BME280;29810;55.848;37.368;2022-12-29T05:24:33;98974.81;;;-3.71;93.64
44148;BME280;29810;55.848;37.368;2022-12-29T05:27:35;98996.34;;;-3.53;93.53
44148;BME280;29810;55.848;37.368;2022-12-29T05:30:37;98987.84;;;-3.54;93.65
44148;BME280;29810;55.848;37.368;2022-12-29T05:33:38;99000.63;;;-3.51;93.25
44148;BME280;29810;55.848;37.368;2022-12-29T05:36:40;98997.88;;;-3.63;92.62
44148;BME280;29810;55.848;37.368;2022-12-29T05:39:43;98993.38;;;-3.78;92.94
44148;BME280;29810;55.848;37.368;2022-12-29T05:42:45;99007.00;;;-3.76;93.39
44148;BME280;29810;55.848;37.368;2022-12-29T05:45:51;98989.81;;;-3.89;93.04
44148;BME280;29810;55.848;37.368;2022-12-29T05:48:55;98998.56;;;-3.73;93.47
44148;BME280;29810;55.848;37.368;2022-12-29T05:51:56;99000.38;;;-3.66;93.17
44148;BME280;29810;55.848;37.368;2022-12-29T05:54:58;98991.78;;;-3.71;92.89
44148;BME280;29810;55.848;37.368;2022-12-29T05:58:00;98998.44;;;-3.81;92.91
44148;BME280;29810;55.848;37.368;2022-12-29T06:01:03;99004.59;;;-3.68;93.49
44148;BME280;29810;55.848;37.368;2022-12-29T06:04:04;99003.00;;;-3.61;93.67
44148;BME280;29810;55.848;37.368;2022-12-29T06:07:06;99002.37;;;-3.48;93.79
44148;BME280;29810;55.848;37.368;2022-12-29T06:10:08;99009.16;;;-3.50;92.94
44148;BME280;29810;55.848;37.368;2022-12-29T06:13:10;99010.19;;;-3.37;93.10
44148;BME280;29810;55.848;37.368;2022-12-29T06:16:14;99012.72;;;-3.39;92.66
44148;BME280;29810;55.848;37.368;2022-12-29T06:19:16;99016.22;;;-3.32;92.41
44148;BME280;29810;55.848;37.368;2022-12-29T06:22:20;99014.12;;;-3.03;94.10
44148;BME280;29810;55.848;37.368;2022-12-29T06:25:24;99017.06;;;-2.75;93.47
44148;BME280;29810;55.848;37.368;2022-12-29T06:28:37;99012.16;;;-2.59;92.36
44148;BME280;29810;55.848;37.368;2022-12-29T06:31:40;99020.94;;;-2.39;93.12
44148;BME280;29810;55.848;37.368;2022-12-29T06:34:44;99020.69;;;-2.57;89.98
44148;BME280;29810;55.848;37.368;2022-12-29T06:37:46;99016.22;;;-2.72;90.09
44148;BME280;29810;55.848;37.368;2022-12-29T06:40:48;99022.03;;;-2.84;89.44
44148;BME280;29810;55.848;37.368;2022-12-29T06:43:50;99019.38;;;-2.90;89.99
44148;BME280;29810;55.848;37.368;2022-12-29T06:46:54;99028.88;;;-2.81;90.47
44148;BME280;29810;55.848;37.368;2022-12-29T06:49:55;99023.03;;;-2.73;89.89
44148;BME280;29810;55.848;37.368;2022-12-29T06:52:57;98999.97;;;-2.79;89.37
44148;BME280;29810;55.848;37.368;2022-12-29T06:55:58;99026.50;;;-2.69;89.18
44148;BME280;29810;55.848;37.368;2022-12-29T06:59:00;99029.88;;;-2.70;89.13
44148;BME280;29810;55.848;37.368;2022-12-29T07:02:02;99009.34;;;-2.79;89.08
44148;BME280;29810;55.848;37.368;2022-12-29T07:05:05;99024.13;;;-2.55;89.51
44148;BME280;29810;55.848;37.368;2022-12-29T07:08:08;99025.13;;;-2.42;88.65
44148;BME280;29810;55.848;37.368;2022-12-29T07:11:10;99025.25;;;-2.33;88.31
44148;BME280;29810;55.848;37.368;2022-12-29T07:14:13;99026.13;;;-2.33;87.40
44148;BME280;29810;55.848;37.368;2022-12-29T07:17:14;99033.72;;;-2.37;86.31
44148;BME280;29810;55.848;37.368;2022-12-29T07:20:16;99023.50;;;-2.36;87.42
44148;BME280;29810;55.848;37.368;2022-12-29T07:23:18;99039.81;;;-2.24;87.15
44148;BME280;29810;55.848;37.368;2022-12-29T07:26:20;99035.53;;;-2.25;86.46
44148;BME280;29810;55.848;37.368;2022-12-29T07:29:23;99035.56;;;-2.24;87.21
44148;BME280;29810;55.848;37.368;2022-12-29T07:32:25;99031.34;;;-2.23;87.23
44148;BME280;29810;55.848;37.368;2022-12-29T07:35:27;99034.81;;;-2.17;86.97
44148;BME280;29810;55.848;37.368;2022-12-29T07:38:28;99020.41;;;-2.10;86.03
44148;BME280;29810;55.848;37.368;2022-12-29T07:41:30;99028.19;;;-1.97;86.00
44148;BME280;29810;55.848;37.368;2022-12-29T07:44:34;99027.44;;;-1.90;85.83
44148;BME280;29810;55.848;37.368;2022-12-29T07:47:39;99016.94;;;-2.17;85.39
44148;BME280;29810;55.848;37.368;2022-12-29T07:50:40;99036.53;;;-2.15;85.49
44148;BME280;29810;55.848;37.368;2022-12-29T07:53:42;99037.44;;;-2.09;85.56
44148;BME280;29810;55.848;37.368;2022-12-29T07:57:04;99009.78;;;-2.45;85.18
44148;BME280;29810;55.848;37.368;2022-12-29T08:00:20;99050.06;;;-2.21;84.57
44148;BME280;29810;55.848;37.368;2022-12-29T08:03:22;99053.59;;;-2.11;85.62
44148;BME280;29810;55.848;37.368;2022-12-29T08:06:44;99049.75;;;-1.72;85.75
44148;BME280;29810;55.848;37.368;2022-12-29T08:10:57;99025.28;;;-1.44;84.37
44148;BME280;29810;55.848;37.368;2022-12-29T08:14:16;99048.44;;;-1.30;82.55
44148;BME280;29810;55.848;37.368;2022-12-29T08:17:23;99041.44;;;-1.50;83.21
44148;BME280;29810;55.848;37.368;2022-12-29T08:20:45;99048.97;;;-1.67;83.81
44148;BME280;29810;55.848;37.368;2022-12-29T08:24:16;99053.25;;;-1.65;83.12
44148;BME280;29810;55.848;37.368;2022-12-29T08:27:38;99055.94;;;-1.52;82.64
44148;BME280;29810;55.848;37.368;2022-12-29T08:31:32;99060.81;;;-1.75;82.73
44148;BME280;29810;55.848;37.368;2022-12-29T08:35:01;99056.59;;;-1.71;83.82
44148;BME280;29810;55.848;37.368;2022-12-29T08:39:14;99059.34;;;-1.51;82.94
44148;BME280;29810;55.848;37.368;2022-12-29T08:42:15;99051.75;;;-1.39;82.62
44148;BME280;29810;55.848;37.368;2022-12-29T08:45:17;99056.78;;;-1.53;82.67
44148;BME280;29810;55.848;37.368;2022-12-29T08:48:21;99036.91;;;-1.77;82.74
44148;BME280;29810;55.848;37.368;2022-12-29T08:51:23;99053.25;;;-1.61;82.83
44148;BME280;29810;55.848;37.368;2022-12-29T08:54:26;99056.09;;;-1.35;83.05
44148;BME280;29810;55.848;37.368;2022-12-29T08:57:28;99056.13;;;-1.28;82.34
44148;BME280;29810;55.848;37.368;2022-12-29T09:00:31;99053.41;;;-1.45;82.46
44148;BME280;29810;55.848;37.368;2022-12-29T09:03:53;99060.25;;;-1.46;81.89
44148;BME280;29810;55.848;37.368;2022-12-29T09:07:35;99068.41;;;-1.81;81.24
44148;BME280;29810;55.848;37.368;2022-12-29T09:10:37;99069.91;;;-2.00;82.89
44148;BME280;29810;55.848;37.368;2022-12-29T09:13:39;99068.31;;;-1.92;83.30
44148;BME280;29810;55.848;37.368;2022-12-29T09:16:41;99068.25;;;-1.95;83.43
44148;BME280;29810;55.848;37.368;2022-12-29T09:20:01;99065.78;;;-1.87;83.59
44148;BME280;29810;55.848;37.368;2022-12-29T09:23:21;99043.59;;;-1.91;83.10
44148;BME280;29810;55.848;37.368;2022-12-29T09:26:22;99064.28;;;-1.70;83.50
44148;BME280;29810;55.848;37.368;2022-12-29T09:29:24;99055.72;;;-1.75;84.10
44148;BME280;29810;55.848;37.368;2022-12-29T09:32:25;99055.81;;;-1.61;82.71
44148;BME280;29810;55.848;37.368;2022-12-29T09:35:27;99066.03;;;-1.62;83.33
44148;BME280;29810;55.848;37.368;2022-12-29T09:38:29;99062.03;;;-1.36;83.58
44148;BME280;29810;55.848;37.368;2022-12-29T09:41:38;99069.94;;;-1.05;82.85
44148;BME280;29810;55.848;37.368;2022-12-29T09:48:16;99066.81;;;-0.62;80.62
44148;BME280;29810;55.848;37.368;2022-12-29T09:51:22;99054.03;;;-0.63;80.17
44148;BME280;29810;55.848;37.368;2022-12-29T09:54:36;99061.75;;;-0.59;80.72
44148;BME280;29810;55.848;37.368;2022-12-29T09:57:47;99063.47;;;-0.53;80.11
44148;BME280;29810;55.848;37.368;2022-12-29T10:04:01;99060.75;;;-0.81;80.96
44148;BME280;29810;55.848;37.368;2022-12-29T10:07:31;99059.88;;;-0.83;81.04
44148;BME280;29810;55.848;37.368;2022-12-29T10:20:55;99053.81;;;-0.97;82.44
44148;BME280;29810;55.848;37.368;2022-12-29T10:24:02;99055.69;;;-0.67;81.49
44148;BME280;29810;55.848;37.368;2022-12-29T10:27:15;99054.88;;;-0.63;80.85
44148;BME280;29810;55.848;37.368;2022-12-29T10:30:19;99060.91;;;-0.55;79.74
44148;BME280;29810;55.848;37.368;2022-12-29T10:33:23;99056.66;;;-0.48;80.87
44148;BME280;29810;55.848;37.368;2022-12-29T10:36:47;99029.25;;;-0.64;79.69
44148;BME280;29810;55.848;37.368;2022-12-29T10:39:52;99052.38;;;-0.49;79.64
44148;BME280;29810;55.848;37.368;2022-12-29T10:42:57;99054.03;;;-0.62;80.33
44148;BME280;29810;55.848;37.368;2022-12-29T10:46:02;99047.19;;;-0.63;80.74
44148;BME280;29810;55.848;37.368;2022-12-29T10:49:13;99058.34;;;-0.55;80.27
44148;BME280;29810;55.848;37.368;2022-12-29T10:52:18;99045.59;;;-0.44;80.63
44148;BME280;29810;55.848;37.368;2022-12-29T10:55:25;99026.69;;;-0.66;80.65
44148;BME280;29810;55.848;37.368;2022-12-29T10:58:29;99019.09;;;-0.52;80.93
44148;BME280;29810;55.848;37.368;2022-12-29T11:01:42;99031.09;;;-0.37;80.98
44148;BME280;29810;55.848;37.368;2022-12-29T11:05:26;99032.84;;;-0.25;80.32
44148;BME280;29810;55.848;37.368;2022-12-29T11:08:38;99037.19;;;-0.10;79.96
44148;BME280;29810;55.848;37.368;2022-12-29T11:11:42;99040.56;;;-0.19;80.52
44148;BME280;29810;55.848;37.368;2022-12-29T11:14:44;99037.97;;;-0.28;81.05
44148;BME280;29810;55.848;37.368;2022-12-29T11:17:48;99044.75;;;-0.40;81.83
44148;BME280;29810;55.848;37.368;2022-12-29T11:20:57;99038.78;;;-0.42;81.83
44148;BME280;29810;55.848;37.368;2022-12-29T11:24:04;99032.81;;;-0.38;81.06
44148;BME280;29810;55.848;37.368;2022-12-29T11:27:16;99043.06;;;-0.38;81.17
44148;BME280;29810;55.848;37.368;2022-12-29T11:30:26;99032.81;;;-0.35;80.64
44148;BME280;29810;55.848;37.368;2022-12-29T11:33:31;99025.13;;;-0.39;81.43
44148;BME280;29810;55.848;37.368;2022-12-29T11:36:34;99032.78;;;-0.45;81.85
44148;BME280;29810;55.848;37.368;2022-12-29T11:40:02;99032.78;;;-0.47;82.03
44148;BME280;29810;55.848;37.368;2022-12-29T11:43:06;99027.66;;;-0.41;81.01
44148;BME280;29810;55.848;37.368;2022-12-29T11:46:18;99035.31;;;-0.52;82.47
44148;BME280;29810;55.848;37.368;2022-12-29T11:49:24;99031.91;;;-0.51;81.71
44148;BME280;29810;55.848;37.368;2022-12-29T11:52:29;99033.56;;;-0.57;82.36
44148;BME280;29810;55.848;37.368;2022-12-29T11:55:34;99033.50;;;-0.70;82.48
44148;BME280;29810;55.848;37.368;2022-12-29T11:58:37;99048.84;;;-0.70;82.80
44148;BME280;29810;55.848;37.368;2022-12-29T12:01:39;99053.91;;;-0.79;82.65
44148;BME280;29810;55.848;37.368;2022-12-29T12:04:44;99058.22;;;-0.75;83.35
44148;BME280;29810;55.848;37.368;2022-12-29T12:07:54;99054.81;;;-0.71;83.17
44148;BME280;29810;55.848;37.368;2022-12-29T12:11:12;99045.41;;;-0.76;82.63
44148;BME280;29810;55.848;37.368;2022-12-29T12:14:18;99057.47;;;-0.60;82.53
44148;BME280;29810;55.848;37.368;2022-12-29T12:17:48;99065.09;;;-0.64;82.21
44148;BME280;29810;55.848;37.368;2022-12-29T12:20:57;99056.59;;;-0.63;82.48
44148;BME280;29810;55.848;37.368;2022-12-29T12:27:39;99055.75;;;-0.56;82.14
44148;BME280;29810;55.848;37.368;2022-12-29T12:30:48;99060.03;;;-0.60;82.70
44148;BME280;29810;55.848;37.368;2022-12-29T12:33:57;99055.75;;;-0.64;82.91
44148;BME280;29810;55.848;37.368;2022-12-29T12:43:56;99051.50;;;-0.54;82.75
44148;BME280;29810;55.848;37.368;2022-12-29T13:00:17;99047.19;;;-0.68;82.60
44148;BME280;29810;55.848;37.368;2022-12-29T13:20:47;99053.09;;;-0.75;83.17
44148;BME280;29810;55.848;37.368;2022-12-29T13:30:21;99054.81;;;-0.71;84.00
44148;BME280;29810;55.848;37.368;2022-12-29T13:36:51;99043.00;;;-0.50;83.90
44148;BME280;29810;55.848;37.368;2022-12-29T13:40:02;99049.84;;;-0.49;83.27
44148;BME280;29810;55.848;37.368;2022-12-29T13:43:07;99050.66;;;-0.52;83.23
44148;BME280;29810;55.848;37.368;2022-12-29T13:46:24;99050.66;;;-0.55;83.67
44148;BME280;29810;55.848;37.368;2022-12-29T13:49:29;99049.84;;;-0.49;83.15
44148;BME280;29810;55.848;37.368;2022-12-29T13:52:38;99043.88;;;-0.49;83.85
44148;BME280;29810;55.848;37.368;2022-12-29T13:55:53;99046.44;;;-0.45;84.14
44148;BME280;29810;55.848;37.368;2022-12-29T14:08:22;99050.75;;;-0.33;83.71
44148;BME280;29810;55.848;37.368;2022-12-29T14:11:36;99048.22;;;-0.28;83.84
44148;BME280;29810;55.848;37.368;2022-12-29T14:14:38;99040.56;;;-0.21;83.62
44148;BME280;29810;55.848;37.368;2022-12-29T14:17:41;99050.78;;;-0.24;84.19
44148;BME280;29810;55.848;37.368;2022-12-29T14:23:50;99055.97;;;-0.10;84.19
44148;BME280;29810;55.848;37.368;2022-12-29T14:26:52;99049.97;;;-0.12;84.43
44148;BME280;29810;55.848;37.368;2022-12-29T14:29:54;99060.22;;;-0.13;84.56
44148;BME280;29810;55.848;37.368;2022-12-29T14:33:09;99056.81;;;-0.12;85.06
44148;BME280;29810;55.848;37.368;2022-12-29T14:36:34;99048.31;;;-0.02;85.01
44148;BME280;29810;55.848;37.368;2022-12-29T14:39:40;99045.75;;;-0.01;84.52
44148;BME280;29810;55.848;37.368;2022-12-29T14:42:43;99044.03;;;-0.05;85.26
44148;BME280;29810;55.848;37.368;2022-12-29T14:45:52;99049.16;;;-0.03;85.89
44148;BME280;29810;55.848;37.368;2022-12-29T14:48:57;99047.47;;;0.05;85.91
44148;BME280;29810;55.848;37.368;2022-12-29T14:52:07;99045.78;;;0.10;86.70
44148;BME280;29810;55.848;37.368;2022-12-29T14:58:27;99049.22;;;0.14;87.18
44148;BME280;29810;55.848;37.368;2022-12-29T15:01:39;99053.50;;;0.18;86.30
44148;BME280;29810;55.848;37.368;2022-12-29T15:04:42;99045.81;;;0.12;86.32
44148;BME280;29810;55.848;37.368;2022-12-29T15:07:44;99052.66;;;0.16;87.58
44148;BME280;29810;55.848;37.368;2022-12-29T15:10:58;99041.53;;;0.22;88.23
44148;BME280;29810;55.848;37.368;2022-12-29T15:14:02;99047.53;;;0.25;86.46
44148;BME280;29810;55.848;37.368;2022-12-29T15:20:30;99030.44;;;0.23;86.58
44148;BME280;29810;55.848;37.368;2022-12-29T15:23:33;99047.53;;;0.28;87.59
44148;BME280;29810;55.848;37.368;2022-12-29T15:26:42;99048.37;;;0.26;88.35
44148;BME280;29810;55.848;37.368;2022-12-29T15:29:46;99047.53;;;0.30;87.99
44148;BME280;29810;55.848;37.368;2022-12-29T15:32:49;99032.13;;;0.22;88.63
44148;BME280;29810;55.848;37.368;2022-12-29T15:35:53;99042.44;;;0.36;89.48
44148;BME280;29810;55.848;37.368;2022-12-29T15:38:56;99042.44;;;0.36;89.41
44148;BME280;29810;55.848;37.368;2022-12-29T15:45:40;99019.34;;;0.44;87.84
44148;BME280;29810;55.848;37.368;2022-12-29T15:48:42;99035.63;;;0.54;89.99
44148;BME280;29810;55.848;37.368;2022-12-29T15:51:45;99035.59;;;0.44;89.26
44148;BME280;29810;55.848;37.368;2022-12-29T15:54:51;99035.63;;;0.46;89.96
44148;BME280;29810;55.848;37.368;2022-12-29T15:57:57;99027.91;;;0.41;88.37
44148;BME280;29810;55.848;37.368;2022-12-29T16:01:00;99022.75;;;0.33;90.18
44148;BME280;29810;55.848;37.368;2022-12-29T16:04:06;99017.66;;;0.37;89.63
44148;BME280;29810;55.848;37.368;2022-12-29T16:07:24;99020.22;;;0.46;90.23
44148;BME280;29810;55.848;37.368;2022-12-29T16:10:37;99021.94;;;0.61;88.67
44148;BME280;29810;55.848;37.368;2022-12-29T16:13:40;99023.66;;;0.51;90.05
44148;BME280;29810;55.848;37.368;2022-12-29T16:16:44;99012.50;;;0.49;90.74
44148;BME280;29810;55.848;37.368;2022-12-29T16:19:51;99015.09;;;0.55;90.36
44148;BME280;29810;55.848;37.368;2022-12-29T16:22:56;99007.41;;;0.55;89.37
44148;BME280;29810;55.848;37.368;2022-12-29T16:25:59;99004.81;;;0.52;90.18
44148;BME280;29810;55.848;37.368;2022-12-29T16:29:05;99004.81;;;0.51;90.53
44148;BME280;29810;55.848;37.368;2022-12-29T16:32:26;98996.28;;;0.50;90.11
44148;BME280;29810;55.848;37.368;2022-12-29T16:35:38;99001.41;;;0.59;89.15
44148;BME280;29810;55.848;37.368;2022-12-29T16:38:40;98998.84;;;0.53;90.32
44148;BME280;29810;55.848;37.368;2022-12-29T16:41:43;98997.13;;;0.49;90.53
44148;BME280;29810;55.848;37.368;2022-12-29T16:44:44;98986.84;;;0.43;90.76
44148;BME280;29810;55.848;37.368;2022-12-29T16:47:51;98977.44;;;0.40;90.81
44148;BME280;29810;55.848;37.368;2022-12-29T16:51:18;98983.44;;;0.53;90.47
44148;BME280;29810;55.848;37.368;2022-12-29T16:54:25;98986.84;;;0.58;89.76
44148;BME280;29810;55.848;37.368;2022-12-29T16:57:33;98986.87;;;0.71;91.26
44148;BME280;29810;55.848;37.368;2022-12-29T17:00:36;98985.16;;;0.70;90.60
44148;BME280;29810;55.848;37.368;2022-12-29T17:03:45;98986.84;;;0.58;90.47
44148;BME280;29810;55.848;37.368;2022-12-29T17:06:47;98976.59;;;0.58;91.24
44148;BME280;29810;55.848;37.368;2022-12-29T17:09:49;98952.66;;;0.41;91.36
44148;BME280;29810;55.848;37.368;2022-12-29T17:12:51;98986.00;;;0.61;91.70
44148;BME280;29810;55.848;37.368;2022-12-29T17:15:53;98984.31;;;0.64;91.62
44148;BME280;29810;55.848;37.368;2022-12-29T17:18:54;98986.84;;;0.60;90.73
44148;BME280;29810;55.848;37.368;2022-12-29T17:21:56;98982.59;;;0.68;91.17
44148;BME280;29810;55.848;37.368;2022-12-29T17:25:00;98984.28;;;0.60;90.99
44148;BME280;29810;55.848;37.368;2022-12-29T17:28:20;98981.72;;;0.61;91.02
44148;BME280;29810;55.848;37.368;2022-12-29T17:31:25;98975.75;;;0.61;89.75
44148;BME280;29810;55.848;37.368;2022-12-29T17:34:27;98942.37;;;0.39;91.93
44148;BME280;29810;55.848;37.368;2022-12-29T17:40:32;98974.91;;;0.45;91.28
44148;BME280;29810;55.848;37.368;2022-12-29T17:43:38;98970.63;;;0.44;91.59
44148;BME280;29810;55.848;37.368;2022-12-29T17:46:39;98974.03;;;0.47;92.28
44148;BME280;29810;55.848;37.368;2022-12-29T17:49:41;98973.19;;;0.42;91.10
44148;BME280;29810;55.848;37.368;2022-12-29T17:52:57;98959.50;;;0.46;91.63
44148;BME280;29810;55.848;37.368;2022-12-29T17:56:00;98961.22;;;0.49;90.58
44148;BME280;29810;55.848;37.368;2022-12-29T17:59:01;98958.66;;;0.46;91.66
44148;BME280;29810;55.848;37.368;2022-12-29T18:05:25;98962.06;;;0.57;91.25
44148;BME280;29810;55.848;37.368;2022-12-29T18:08:27;98957.81;;;0.56;91.86
44148;BME280;29810;55.848;37.368;2022-12-29T18:11:30;98960.34;;;0.64;92.50
44148;BME280;29810;55.848;37.368;2022-12-29T18:14:32;98948.38;;;0.55;91.56
44148;BME280;29810;55.848;37.368;2022-12-29T18:17:35;98953.53;;;0.55;91.69
44148;BME280;29810;55.848;37.368;2022-12-29T18:20:36;98945.81;;;0.52;91.68
44148;BME280;29810;55.848;37.368;2022-12-29T18:23:39;98942.37;;;0.53;91.61
44148;BME280;29810;55.848;37.368;2022-12-29T18:26:40;98950.94;;;0.55;91.87
44148;BME280;29810;55.848;37.368;2022-12-29T18:29:42;98965.50;;;0.56;91.67
44148;BME280;29810;55.848;37.368;2022-12-29T18:32:44;98955.22;;;0.55;91.89
44148;BME280;29810;55.848;37.368;2022-12-29T18:38:58;98952.66;;;0.61;90.91
44148;BME280;29810;55.848;37.368;2022-12-29T18:42:03;98951.81;;;0.51;91.92
44148;BME280;29810;55.848;37.368;2022-12-29T18:45:22;98950.09;;;0.52;91.83